Time;durP1;ratioP1;P1;durP2;ratioP2;P2;SDS_P1;SDS_P2;PMS_P1;PMS_P2;Temp;Humidity;BMP_temperature;BMP_pressure;BME280_temperature;BME280_humidity;BME280_pressure;Samples;Min_cycle;Max_cycle;Signal;HPM_P1;HPM_P2
2022/04/22 00:00:51;;;;;;;6.47;5.28;;;;;;;12.62;63.95;100125.41;5051426;28;20048;-61
2022/04/22 00:03:18;;;;;;;5.65;5.00;;;;;;;12.59;64.10;100115.94;5050702;28;20497;-61
2022/04/22 00:05:45;;;;;;;6.60;5.30;;;;;;;12.58;64.34;100112.50;5044202;28;20136;-61
2022/04/22 00:08:11;;;;;;;5.95;5.13;;;;;;;12.58;64.26;100107.22;5053166;28;20214;-61
2022/04/22 00:11:29;;;;;;;6.55;5.10;;;;;;;12.56;64.27;100097.78;5039444;28;20460;-61
2022/04/22 00:13:25;;;;;;;6.22;5.07;;;;;;;12.53;64.30;100093.56;5053271;28;20077;-61
2022/04/22 00:15:52;;;;;;;7.47;5.20;;;;;;;12.50;64.25;100078.00;5053250;28;20111;-61
2022/04/22 00:18:19;;;;;;;7.88;5.25;;;;;;;12.49;64.28;100083.38;5053136;28;20049;-61
2022/04/22 00:20:45;;;;;;;7.85;5.32;;;;;;;12.48;64.37;100082.56;5038668;28;20041;-61
2022/04/22 00:23:12;;;;;;;5.78;5.22;;;;;;;12.53;64.27;100077.78;5051866;28;20088;-61
2022/04/22 00:25:39;;;;;;;7.78;4.85;;;;;;;12.53;64.25;100074.28;5049668;28;20049;-61
2022/04/22 00:28:06;;;;;;;7.13;5.10;;;;;;;12.50;64.29;100069.28;5052969;28;20076;-61
2022/04/22 00:30:32;;;;;;;5.53;4.85;;;;;;;12.56;64.18;100060.94;5052931;28;20049;-61
2022/04/22 00:33:00;;;;;;;6.70;5.22;;;;;;;12.57;64.15;100062.59;5052824;28;20044;-61
2022/04/22 00:35:27;;;;;;;6.88;4.85;;;;;;;12.60;63.78;100056.28;5052926;28;20052;-61
2022/04/22 00:37:53;;;;;;;5.50;4.57;;;;;;;12.60;63.88;100056.28;5039726;28;20040;-61
2022/04/22 00:40:20;;;;;;;5.63;5.03;;;;;;;12.62;63.82;100049.06;5053067;28;20045;-61
2022/04/22 00:42:47;;;;;;;7.93;4.95;;;;;;;12.64;63.70;100050.63;5052609;28;20079;-61
2022/04/22 00:45:16;;;;;;;5.20;4.47;;;;;;;12.60;63.66;100043.94;5052649;28;20080;-61
2022/04/22 00:47:42;;;;;;;6.55;4.97;;;;;;;12.57;63.55;100037.13;5052444;28;20469;-61
2022/04/22 00:50:09;;;;;;;6.07;4.72;;;;;;;12.60;63.51;100041.31;5052241;28;20118;-61
2022/04/22 00:52:35;;;;;;;5.75;5.15;;;;;;;12.59;63.47;100039.63;5052412;28;20099;-61
2022/04/22 00:55:02;;;;;;;6.95;4.90;;;;;;;12.58;63.56;100028.28;5041544;28;20106;-61
2022/04/22 00:57:31;;;;;;;6.78;5.43;;;;;;;12.56;63.52;100029.34;5052684;28;20056;-61
2022/04/22 00:59:58;;;;;;;6.28;5.05;;;;;;;12.57;63.40;100029.22;5052429;28;20102;-61
2022/04/22 01:02:25;;;;;;;6.55;5.22;;;;;;;12.51;63.66;100024.41;5052497;28;20045;-61
2022/04/22 01:10:23;;;;;;;6.50;5.90;;;;;;;12.48;63.42;100022.03;5041144;28;20478;-61
2022/04/22 01:12:49;;;;;;;6.60;5.70;;;;;;;12.49;63.61;100017.59;5048687;28;20096;-61
2022/04/22 01:15:17;;;;;;;6.63;5.93;;;;;;;12.48;63.59;100013.28;5044957;28;20073;-61
2022/04/22 01:17:46;;;;;;;7.43;6.15;;;;;;;12.48;63.60;100005.38;5048544;28;20417;-61
2022/04/22 01:20:13;;;;;;;8.98;5.63;;;;;;;12.46;63.70;100005.50;5044537;28;20144;-61
2022/04/22 01:22:39;;;;;;;6.35;5.70;;;;;;;12.47;63.64;99995.81;5048727;28;20099;-61
2022/04/22 01:25:06;;;;;;;7.82;5.85;;;;;;;12.49;63.77;99988.66;5046867;28;20073;-61
2022/04/22 01:27:34;;;;;;;8.25;6.20;;;;;;;12.47;63.78;99987.91;5041803;28;20483;-61
2022/04/22 01:30:04;;;;;;;6.95;5.45;;;;;;;12.49;63.86;99978.94;5042388;28;20077;-61
2022/04/22 01:32:30;;;;;;;7.35;5.13;;;;;;;12.48;63.91;99979.94;5045469;28;20052;-61
2022/04/22 01:34:57;;;;;;;6.10;5.32;;;;;;;12.50;63.98;99979.81;5048349;28;20501;-60
2022/04/22 01:37:24;;;;;;;5.63;4.72;;;;;;;12.49;64.06;99976.31;5044667;28;20092;-61
2022/04/22 01:39:51;;;;;;;7.30;5.32;;;;;;;12.52;64.13;99975.25;5048417;28;20512;-61
2022/04/22 01:42:18;;;;;;;7.28;5.55;;;;;;;12.52;64.09;99972.63;5045196;28;20120;-61
2022/04/22 01:44:46;;;;;;;6.75;5.65;;;;;;;12.49;64.28;99964.97;5037954;28;20056;-61
2022/04/22 01:47:13;;;;;;;8.48;5.40;;;;;;;12.43;64.45;99958.41;5046263;28;20056;-61
2022/04/22 01:49:39;;;;;;;7.65;5.25;;;;;;;12.44;64.45;99956.59;5046420;28;20076;-61
2022/04/22 01:52:07;;;;;;;6.50;5.90;;;;;;;12.43;64.32;99954.91;5048255;28;20088;-61
2022/04/22 01:54:33;;;;;;;6.80;5.72;;;;;;;12.44;64.40;99956.59;5045134;28;21665;-61
2022/04/22 01:57:00;;;;;;;8.63;5.85;;;;;;;12.43;64.55;99944.38;5048113;28;20055;-61
2022/04/22 01:59:27;;;;;;;6.38;5.38;;;;;;;12.44;64.64;99940.81;5044210;28;20092;-61
2022/04/22 02:01:54;;;;;;;6.22;5.38;;;;;;;12.48;64.51;99923.81;5048369;28;20045;-61
2022/04/22 02:04:21;;;;;;;6.50;5.50;;;;;;;12.46;64.54;99923.94;5045208;28;20562;-61
2022/04/22 02:06:47;;;;;;;7.38;5.60;;;;;;;12.48;64.60;99918.56;5047630;28;20469;-61
2022/04/22 02:09:14;;;;;;;6.30;5.18;;;;;;;12.46;64.65;99915.22;5040499;28;20052;-61
2022/04/22 02:11:41;;;;;;;8.55;5.25;;;;;;;12.49;64.44;99907.06;5045365;28;20102;-61
2022/04/22 02:14:08;;;;;;;5.72;4.97;;;;;;;12.52;64.63;99902.41;5051323;28;20049;-61
2022/04/22 02:16:35;;;;;;;5.18;4.38;;;;;;;12.49;64.72;99907.91;5051667;28;20049;-61
2022/04/22 02:19:02;;;;;;;6.53;4.75;;;;;;;12.52;64.59;99899.78;5053421;28;20098;-61
2022/04/22 02:21:28;;;;;;;6.00;4.68;;;;;;;12.53;64.72;99904.09;5055451;28;20076;-61
2022/04/22 02:23:55;;;;;;;5.88;4.47;;;;;;;12.55;64.75;99890.81;5055191;28;20048;-61
2022/04/22 02:26:21;;;;;;;6.93;4.55;;;;;;;12.58;64.65;99887.91;5055365;28;20048;-61
2022/04/22 02:28:48;;;;;;;5.43;4.43;;;;;;;12.60;64.62;99885.19;5055006;28;20087;-61
2022/04/22 02:31:14;;;;;;;5.10;4.18;;;;;;;12.61;64.81;99889.47;5055281;28;20079;-61
2022/04/22 02:33:42;;;;;;;4.63;4.22;;;;;;;12.62;64.87;99885.88;5055269;28;20041;-61
2022/04/22 02:36:10;;;;;;;5.93;4.43;;;;;;;12.61;64.87;99877.16;5053880;28;20452;-61
2022/04/22 02:38:37;;;;;;;4.90;4.40;;;;;;;12.63;64.90;99877.03;5054649;28;20502;-61
2022/04/22 02:46:35;;;;;;;6.50;4.70;;;;;;;12.64;64.93;99863.75;5054282;28;20556;-60
2022/04/22 02:49:02;;;;;;;5.78;4.60;;;;;;;12.69;64.95;99858.13;5054041;28;20132;-61
2022/04/22 02:51:28;;;;;;;4.32;3.92;;;;;;;12.69;65.16;99850.22;5053662;28;20045;-61
2022/04/22 02:53:55;;;;;;;6.10;4.50;;;;;;;12.69;65.08;99840.53;5049295;28;20077;-61
2022/04/22 02:56:23;;;;;;;5.05;4.38;;;;;;;12.73;65.06;99833.22;5045503;28;20048;-61
2022/04/22 02:58:50;;;;;;;5.28;4.32;;;;;;;12.72;65.28;99835.03;5045108;28;20168;-61
2022/04/22 03:01:17;;;;;;;4.32;3.92;;;;;;;12.74;65.07;99830.47;5043925;28;20045;-61
2022/04/22 03:03:45;;;;;;;4.45;4.05;;;;;;;12.71;65.37;99824.63;5047650;28;20049;-61
2022/04/22 03:06:11;;;;;;;5.60;3.97;;;;;;;12.72;65.13;99821.88;5038364;28;20087;-61
2022/04/22 03:08:38;;;;;;;4.65;4.15;;;;;;;12.72;65.31;99819.25;5039811;28;20045;-61
2022/04/22 03:11:05;;;;;;;4.97;4.00;;;;;;;12.73;65.36;99817.44;5039831;28;20045;-61
2022/04/22 03:13:31;;;;;;;4.63;4.03;;;;;;;12.76;65.35;99817.19;5051172;28;20048;-61
2022/04/22 03:15:59;;;;;;;4.82;4.10;;;;;;;12.79;65.38;99810.84;5050735;28;20091;-61
2022/04/22 03:18:25;;;;;;;5.28;4.68;;;;;;;12.76;65.41;99811.94;5050845;28;20041;-61
2022/04/22 03:20:52;;;;;;;4.35;3.85;;;;;;;12.79;65.37;99816.13;5050488;28;20098;-61
2022/04/22 03:23:19;;;;;;;5.65;4.07;;;;;;;12.77;65.48;99805.69;5051394;28;20081;-61
2022/04/22 03:25:45;;;;;;;5.40;4.03;;;;;;;12.77;65.56;99800.41;5048062;28;20037;-61
2022/04/22 03:28:12;;;;;;;4.63;3.92;;;;;;;12.80;65.49;99791.44;5031495;28;20107;-61
2022/04/22 03:30:38;;;;;;;4.35;3.70;;;;;;;12.82;65.39;99795.63;5033192;28;20069;-61
2022/04/22 03:33:05;;;;;;;4.68;3.33;;;;;;;12.82;65.57;99792.97;5031974;28;20063;-61
2022/04/22 03:35:32;;;;;;;4.05;3.38;;;;;;;12.84;65.50;99792.88;5032501;28;20509;-61
2022/04/22 03:37:58;;;;;;;4.45;3.30;;;;;;;12.87;65.37;99788.22;5032929;28;20042;-61
2022/04/22 03:40:25;;;;;;;4.60;3.30;;;;;;;12.87;65.39;99790.84;5032192;28;20046;-61
2022/04/22 03:42:52;;;;;;;4.22;2.83;;;;;;;12.87;65.39;99793.47;5036398;28;20095;-61
2022/04/22 03:45:22;;;;;;;5.32;3.38;;;;;;;12.89;65.44;99782.81;5034538;28;20449;-61
2022/04/22 03:47:48;;;;;;;3.58;2.80;;;;;;;12.91;65.41;99775.59;5038418;28;20049;-61
2022/04/22 03:50:15;;;;;;;3.70;2.97;;;;;;;12.91;65.33;99775.59;5033856;28;20067;-61
2022/04/22 03:52:42;;;;;;;5.40;3.20;;;;;;;12.93;65.38;99771.06;5035221;28;20053;-61
2022/04/22 03:55:09;;;;;;;4.72;2.83;;;;;;;12.94;65.40;99770.09;5042062;28;20453;-61
2022/04/22 04:00:21;;;;;;;3.28;2.40;;;;;;;12.98;65.26;99768.88;5033908;28;20103;-61
2022/04/22 04:02:48;;;;;;;3.13;2.47;;;;;;;13.00;65.41;99774.88;5034370;28;20045;-61
2022/04/22 04:05:15;;;;;;;3.83;2.47;;;;;;;13.01;65.25;99763.34;5036114;28;20053;-61
2022/04/22 04:07:42;;;;;;;2.70;2.00;;;;;;;13.02;65.39;99761.56;5033521;28;20053;-61
2022/04/22 04:15:59;;;;;;;3.95;2.30;;;;;;;13.07;65.34;99754.94;5046775;28;20091;-61
2022/04/22 04:18:31;;;;;;;5.32;2.70;;;;;;;13.10;65.42;99753.03;5032185;28;20103;-61
2022/04/22 04:23:45;;;;;;;2.42;2.00;;;;;;;13.12;65.64;99749.28;5033074;28;20045;-61
2022/04/22 04:26:14;;;;;;;2.55;2.10;;;;;;;13.12;65.67;99741.41;5032867;28;20082;-61
2022/04/22 04:28:43;;;;;;;2.95;2.15;;;;;;;13.14;65.82;99749.16;5030770;28;20104;-61
2022/04/22 04:31:13;;;;;;;2.80;2.30;;;;;;;13.15;66.16;99746.38;5033052;28;20088;-61
2022/04/22 04:33:41;;;;;;;3.28;2.00;;;;;;;13.16;66.17;99752.50;5039093;28;20080;-61
2022/04/22 04:36:14;;;;;;;2.80;2.33;;;;;;;13.15;66.39;99743.75;5033690;28;20137;-61
2022/04/22 04:38:42;;;;;;;2.95;2.38;;;;;;;13.16;66.79;99748.06;5031722;28;20046;-61
2022/04/22 04:41:09;;;;;;;4.28;2.40;;;;;;;13.15;66.63;99742.94;5032920;28;20041;-61
2022/04/22 04:43:40;;;;;;;6.47;3.15;;;;;;;13.16;66.68;99737.53;5031439;28;20107;-61
2022/04/22 04:46:07;;;;;;;12.48;8.05;;;;;;;13.14;67.06;99736.84;5033277;28;20044;-61
2022/04/22 04:48:36;;;;;;;16.25;13.57;;;;;;;13.02;67.52;99740.50;5042923;28;20045;-61
2022/04/22 04:51:04;;;;;;;18.50;15.38;;;;;;;12.94;68.08;99741.13;5042312;28;20044;-61
2022/04/22 04:53:31;;;;;;;19.50;16.45;;;;;;;12.92;68.07;99735.16;5043227;28;20049;-61
2022/04/22 04:55:58;;;;;;;21.10;16.42;;;;;;;12.87;68.19;99735.53;5037267;28;20548;-61
2022/04/22 04:58:25;;;;;;;19.83;17.08;;;;;;;12.87;68.41;99737.31;5041851;28;20083;-61
2022/04/22 05:00:52;;;;;;;3.75;2.53;;;;;;;13.35;66.93;99728.91;5042831;28;20045;-61
2022/04/22 05:03:19;;;;;;;20.52;16.10;;;;;;;13.58;65.45;99739.34;5040218;28;20044;-62
2022/04/22 05:05:45;;;;;;;17.52;15.63;;;;;;;13.34;66.37;99723.78;5036526;28;20045;-61
2022/04/22 05:08:12;;;;;;;21.80;15.82;;;;;;;13.25;66.80;99733.28;5039535;28;20568;-61
2022/04/22 05:10:39;;;;;;;20.88;16.92;;;;;;;13.16;67.11;99737.53;5034956;28;20128;-61
2022/04/22 05:13:05;;;;;;;21.50;16.75;;;;;;;13.09;67.48;99733.75;5038319;28;20041;-61
2022/04/22 05:15:33;;;;;;;18.80;16.33;;;;;;;13.06;67.61;99740.13;5045443;28;20469;-62
2022/04/22 05:18:02;;;;;;;17.90;15.18;;;;;;;13.01;68.17;99734.38;5047797;28;20056;-62
2022/04/22 05:20:32;;;;;;;21.05;15.88;;;;;;;12.98;68.14;99739.09;5046085;28;20502;-61
2022/04/22 05:22:58;;;;;;;18.75;16.05;;;;;;;12.93;68.35;99742.09;5041450;28;20045;-61
2022/04/22 05:25:25;;;;;;;23.40;16.95;;;;;;;12.93;68.53;99741.25;5046724;28;20041;-62
2022/04/22 05:27:52;;;;;;;22.35;16.98;;;;;;;12.90;68.68;99742.34;5047492;28;20455;-61
2022/04/22 05:33:05;;;;;;;21.77;18.05;;;;;;;12.89;69.08;99754.66;5036740;28;20072;-63
2022/04/22 05:35:31;;;;;;;20.92;17.25;;;;;;;12.90;69.20;99751.06;5046415;28;20136;-63
2022/04/22 05:38:00;;;;;;;21.55;17.08;;;;;;;12.89;69.36;99746.78;5034427;28;20076;-62
2022/04/22 05:40:33;;;;;;;14.85;12.43;;;;;;;12.93;69.38;99751.81;5047568;28;20079;-63
2022/04/22 05:43:00;;;;;;;7.97;6.10;;;;;;;12.97;69.31;99746.13;5046879;28;20115;-62
2022/04/22 05:45:28;;;;;;;4.90;2.90;;;;;;;13.02;69.25;99746.59;5047384;28;20079;-61
2022/04/22 05:47:58;;;;;;;18.77;4.55;;;;;;;13.48;68.10;99736.63;5045998;28;20482;-65
2022/04/22 05:50:26;;;;;;;30.10;4.57;;;;;;;13.86;66.53;99743.09;5047271;28;20095;-61
2022/04/22 05:52:53;;;;;;;3.53;2.25;;;;;;;13.78;66.29;99739.44;5048637;28;20040;-62
2022/04/22 05:55:22;;;;;;;2.92;2.20;;;;;;;13.65;66.57;99735.22;5047989;28;20497;-62
2022/04/22 05:57:51;;;;;;;2.97;2.20;;;;;;;13.55;67.19;99737.78;5050411;28;20041;-62
2022/04/22 06:00:20;;;;;;;6.78;2.42;;;;;;;13.51;67.35;99735.53;5051365;28;20079;-62
2022/04/22 06:02:47;;;;;;;2.97;2.33;;;;;;;13.48;67.44;99738.44;5050057;28;20084;-62
2022/04/22 06:05:15;;;;;;;2.88;2.28;;;;;;;13.45;67.93;99739.53;5051052;28;20405;-62
2022/04/22 06:07:43;;;;;;;3.95;2.33;;;;;;;13.48;67.80;99739.28;5050725;28;20053;-62
2022/04/22 06:10:44;;;;;;;14.13;9.48;;;;;;;13.41;67.95;99732.88;5037662;28;20091;-63
2022/04/22 06:13:04;;;;;;;22.77;16.50;;;;;;;13.31;68.52;99734.59;5051087;28;20458;-63
2022/04/22 06:15:37;;;;;;;22.60;17.23;;;;;;;13.21;68.80;99740.63;5050295;28;20041;-63
2022/04/22 06:18:06;;;;;;;23.35;16.98;;;;;;;13.14;69.22;99738.63;5048856;28;20049;-62
2022/04/22 06:20:33;;;;;;;22.77;17.83;;;;;;;13.15;69.44;99737.66;5049125;28;20073;-62
2022/04/22 06:23:02;;;;;;;24.48;18.23;;;;;;;13.05;69.82;99734.97;5048505;28;20481;-63
2022/04/22 06:25:29;;;;;;;22.83;17.45;;;;;;;13.00;70.06;99735.34;5049775;28;20409;-63
2022/04/22 06:27:56;;;;;;;22.48;18.08;;;;;;;12.98;70.22;99733.81;5050808;28;20593;-63
2022/04/22 06:30:24;;;;;;;26.20;17.77;;;;;;;13.02;70.21;99740.50;5040142;28;20049;-63
2022/04/22 06:32:52;;;;;;;24.45;17.48;;;;;;;13.03;70.12;99740.34;5035021;28;20047;-63
2022/04/22 06:35:23;;;;;;;22.85;17.70;;;;;;;13.00;70.31;99739.78;5050440;28;20045;-63
2022/04/22 06:37:51;;;;;;;24.33;18.00;;;;;;;12.98;70.41;99739.09;5035733;28;21344;-63
2022/04/22 06:45:51;;;;;;;21.48;16.50;;;;;;;12.99;70.29;99740.72;5043539;28;19982;-62
2022/04/22 06:48:41;;;;;;;21.98;17.45;;;;;;;12.90;70.42;99750.25;5041649;28;20073;-62
2022/04/22 06:51:11;;;;;;;20.85;17.15;;;;;;;12.82;70.83;99742.97;5043664;28;20060;-63
2022/04/22 06:53:39;;;;;;;25.73;17.95;;;;;;;12.74;71.04;99748.84;5035409;28;20132;-62
2022/04/22 06:56:09;;;;;;;22.23;18.45;;;;;;;12.57;71.84;99749.41;5045688;28;20555;-63
2022/04/22 06:58:37;;;;;;;22.20;17.55;;;;;;;12.56;71.89;99745.94;5044943;28;20056;-63
2022/04/22 07:01:07;;;;;;;22.08;17.83;;;;;;;12.58;71.96;99754.56;5036237;28;20414;-63
2022/04/22 07:03:54;;;;;;;24.67;18.60;;;;;;;12.55;72.13;99746.06;5039521;28;20049;-63
2022/04/22 07:06:21;;;;;;;24.50;17.88;;;;;;;12.50;72.39;99746.44;5047896;28;20049;-62
2022/04/22 07:08:49;;;;;;;22.85;18.08;;;;;;;12.61;72.21;99755.25;5045675;28;20575;-63
2022/04/22 07:11:26;;;;;;;23.23;18.45;;;;;;;12.50;72.73;99759.59;5040995;28;20103;-62
2022/04/22 07:13:58;;;;;;;24.23;19.05;;;;;;;12.51;72.84;99760.44;5050496;28;20552;-62
2022/04/22 07:16:25;;;;;;;23.40;17.40;;;;;;;12.41;72.95;99760.34;5051023;28;20045;-62
2022/04/22 07:18:53;;;;;;;27.77;18.15;;;;;;;12.39;73.08;99763.09;5046224;28;20068;-63
2022/04/22 07:21:21;;;;;;;19.48;15.95;;;;;;;12.39;73.26;99749.09;5038755;28;20103;-63
2022/04/22 07:23:47;;;;;;;22.33;17.52;;;;;;;12.38;73.30;99755.34;5033957;28;20099;-62
2022/04/22 07:26:17;;;;;;;24.08;17.08;;;;;;;12.48;72.95;99758.03;5030696;28;20455;-62
2022/04/22 07:28:49;;;;;;;23.40;17.45;;;;;;;12.39;73.11;99754.34;5038401;28;20077;-62
2022/04/22 07:31:18;;;;;;;21.52;17.38;;;;;;;12.39;73.24;99763.09;5047461;28;20559;-62
2022/04/22 07:33:45;;;;;;;29.50;17.17;;;;;;;12.38;73.29;99764.03;5045626;28;20777;-63
2022/04/22 07:36:12;;;;;;;24.40;18.33;;;;;;;12.35;73.60;99759.00;5035452;28;20680;-63
2022/04/22 07:38:39;;;;;;;23.73;17.63;;;;;;;12.39;73.65;99765.72;5030875;28;20057;-62
2022/04/22 07:41:08;;;;;;;23.33;17.67;;;;;;;12.46;73.25;99763.44;5036942;28;20072;-62
2022/04/22 07:49:08;;;;;;;29.10;20.98;;;;;;;12.49;73.57;99770.25;5033053;28;20053;-62
2022/04/22 07:51:35;;;;;;;21.63;17.88;;;;;;;12.56;73.62;99772.25;5036368;28;20056;-62
2022/04/22 07:54:01;;;;;;;26.75;19.85;;;;;;;12.59;73.38;99765.91;5036318;28;20099;-62
2022/04/22 07:56:28;;;;;;;21.60;17.10;;;;;;;12.64;73.38;99765.53;5046568;28;20501;-62
2022/04/22 07:58:56;;;;;;;29.70;20.88;;;;;;;12.58;73.75;99769.50;5047249;28;20103;-62
2022/04/22 08:01:23;;;;;;;26.38;19.27;;;;;;;12.57;73.62;99763.41;5040456;28;20577;-62
2022/04/22 08:03:50;;;;;;;22.77;17.27;;;;;;;12.67;73.80;99765.28;5039172;28;20049;-62
2022/04/22 08:06:17;;;;;;;20.80;17.30;;;;;;;12.69;73.30;99771.25;5039148;28;20560;-62
2022/04/22 08:08:43;;;;;;;20.50;16.80;;;;;;;12.69;73.82;99766.00;5038487;28;20049;-63
2022/04/22 08:11:10;;;;;;;22.13;17.23;;;;;;;12.68;73.58;99766.97;5038840;28;20087;-62
2022/04/22 08:13:36;;;;;;;22.73;16.77;;;;;;;12.71;73.55;99766.72;5045149;28;20069;-61
2022/04/22 08:16:03;;;;;;;21.20;16.35;;;;;;;12.83;73.48;99763.06;5029004;28;20037;-62
2022/04/22 08:18:30;;;;;;;20.90;15.68;;;;;;;12.83;73.60;99760.44;5043525;28;20099;-61
2022/04/22 08:20:57;;;;;;;26.88;19.63;;;;;;;12.93;73.49;99757.88;5036197;28;20041;-63
2022/04/22 08:23:23;;;;;;;31.60;23.42;;;;;;;12.99;73.41;99752.13;5044134;28;20089;-62
2022/04/22 08:25:50;;;;;;;24.48;18.15;;;;;;;12.96;73.67;99749.72;5049146;28;20072;-62
2022/04/22 08:28:17;;;;;;;21.88;16.23;;;;;;;12.91;73.87;99754.53;5048264;28;20052;-62
2022/04/22 08:30:44;;;;;;;34.30;24.02;;;;;;;12.95;74.10;99755.13;5041139;28;20076;-62
2022/04/22 08:33:11;;;;;;;22.27;16.27;;;;;;;13.05;74.14;99748.13;5044497;28;20045;-62
2022/04/22 08:35:37;;;;;;;18.50;15.05;;;;;;;13.05;73.63;99748.97;5042542;28;20077;-62
2022/04/22 08:38:06;;;;;;;19.73;15.90;;;;;;;13.02;74.01;99743.94;5044779;28;20040;-62
2022/04/22 08:40:37;;;;;;;20.55;16.15;;;;;;;13.00;74.23;99750.31;5040877;28;20406;-62
2022/04/22 08:43:06;;;;;;;23.25;16.02;;;;;;;12.98;74.43;99747.81;5034793;28;20087;-62
2022/04/22 08:45:33;;;;;;;20.58;16.05;;;;;;;12.92;74.73;99747.50;5041626;28;20046;-62
2022/04/22 08:50:51;;;;;;;22.50;14.13;;;;;;;13.12;74.33;99759.84;5038235;28;20041;-63
2022/04/22 08:53:22;;;;;;;21.48;16.13;;;;;;;13.15;74.39;99754.28;5035584;28;20087;-62
2022/04/22 08:55:55;;;;;;;22.92;17.75;;;;;;;13.20;74.50;99756.56;5041158;28;20395;-62
2022/04/22 08:58:23;;;;;;;60.38;42.45;;;;;;;13.43;74.35;99753.81;5038446;28;20045;-63
2022/04/22 09:00:51;;;;;;;67.00;43.20;;;;;;;13.82;72.47;99752.19;5042898;28;20045;-62
2022/04/22 09:03:19;;;;;;;65.75;45.80;;;;;;;14.10;71.24;99752.44;5032962;28;20083;-62
2022/04/22 09:05:46;;;;;;;67.78;47.40;;;;;;;14.28;70.90;99757.06;5036318;28;20466;-61
2022/04/22 09:08:14;;;;;;;49.28;36.60;;;;;;;14.34;70.24;99753.91;5043739;28;20088;-62
2022/04/22 09:10:42;;;;;;;25.65;18.85;;;;;;;13.92;71.44;99757.53;5033523;28;20045;-63
2022/04/22 09:13:11;;;;;;;31.15;21.05;;;;;;;13.70;72.46;99756.75;5040861;28;20050;-63
2022/04/22 09:15:39;;;;;;;27.90;20.08;;;;;;;13.63;73.17;99754.75;5041158;28;20122;-63
2022/04/22 09:18:26;;;;;;;22.95;18.42;;;;;;;13.58;73.31;99765.69;5034861;28;20087;-63
2022/04/22 09:21:01;;;;;;;26.02;18.45;;;;;;;13.57;73.79;99761.38;5038119;28;20114;-65
2022/04/22 09:23:31;;;;;;;23.73;18.20;;;;;;;13.50;73.96;99763.72;5047890;28;20114;-63
2022/04/22 09:25:58;;;;;;;25.90;18.65;;;;;;;13.39;74.42;99767.28;5047394;28;20111;-62
2022/04/22 09:28:25;;;;;;;29.95;22.05;;;;;;;13.34;74.84;99765.94;5048691;28;20473;-63
2022/04/22 09:30:59;;;;;;;25.90;19.52;;;;;;;13.35;74.75;99767.63;5041983;28;20052;-63
2022/04/22 09:33:34;;;;;;;22.23;17.95;;;;;;;13.33;75.18;99764.25;5044236;28;20132;-63
2022/04/22 09:44:24;;;;;;;29.80;20.10;;;;;;;13.23;75.32;99777.41;5039437;28;20490;-63
2022/04/22 09:47:11;;;;;;;40.88;29.42;;;;;;;13.24;74.66;99784.31;5042999;28;20143;-63
2022/04/22 09:49:43;;;;;;;26.60;21.25;;;;;;;13.17;75.28;99789.25;5042584;28;20135;-63
2022/04/22 09:52:10;;;;;;;26.02;20.33;;;;;;;13.20;74.96;99786.38;5043204;28;20049;-63
2022/04/22 09:54:39;;;;;;;20.35;17.00;;;;;;;13.23;75.32;99788.75;5038667;28;20076;-63
2022/04/22 09:57:26;;;;;;;67.05;42.55;;;;;;;13.36;74.89;99790.38;5041819;28;20151;-63
2022/04/22 09:59:53;;;;;;;48.38;29.88;;;;;;;13.44;74.65;99795.03;5042042;28;20449;-63
2022/04/22 10:02:23;;;;;;;92.15;51.13;;;;;;;13.35;74.96;99791.34;5043210;28;20037;-63
2022/04/22 10:04:52;;;;;;;107.65;63.22;;;;;;;13.33;74.91;99794.09;5033466;28;20071;-63
2022/04/22 10:07:22;;;;;;;27.48;19.83;;;;;;;13.39;74.75;99795.41;5044124;28;20080;-63
2022/04/22 10:09:53;;;;;;;29.38;21.33;;;;;;;13.38;74.87;99799.00;5031843;28;20085;-63
2022/04/22 10:12:24;;;;;;;51.63;33.85;;;;;;;13.39;75.07;99805.94;5046768;28;20490;-63
2022/04/22 10:14:53;;;;;;;57.22;34.92;;;;;;;13.43;74.98;99806.53;5047784;28;20045;-63
2022/04/22 10:17:20;;;;;;;101.72;58.38;;;;;;;13.47;74.86;99802.66;5044427;28;20037;-63
2022/04/22 10:19:48;;;;;;;59.08;40.85;;;;;;;13.48;75.04;99805.16;5045297;28;20080;-62
2022/04/22 10:22:17;;;;;;;51.75;31.95;;;;;;;13.61;74.81;99814.69;5043000;28;20124;-64
2022/04/22 10:24:44;;;;;;;97.78;55.47;;;;;;;13.57;75.05;99811.47;5031056;28;20037;-62
2022/04/22 10:27:12;;;;;;;143.43;81.00;;;;;;;13.65;74.90;99816.94;5033639;28;20549;-62
2022/04/22 10:29:41;;;;;;;77.03;45.03;;;;;;;13.65;74.92;99813.44;5034847;28;20053;-62
2022/04/22 10:32:11;;;;;;;79.07;51.05;;;;;;;13.69;74.97;99820.97;5029350;28;20486;-63
2022/04/22 10:34:42;;;;;;;45.85;33.25;;;;;;;13.79;75.03;99817.56;5033479;28;20052;-62
2022/04/22 10:37:20;;;;;;;53.92;40.50;;;;;;;13.72;75.17;99811.97;5043992;28;20052;-63
2022/04/22 10:39:51;;;;;;;33.83;24.92;;;;;;;13.67;75.30;99815.00;5038849;28;20049;-62
2022/04/22 10:42:38;;;;;;;27.75;21.10;;;;;;;13.66;75.25;99823.88;5035181;28;20069;-65
2022/04/22 10:47:53;;;;;;;46.03;31.98;;;;;;;13.77;74.98;99825.59;5033441;28;20072;-63
2022/04/22 10:50:39;;;;;;;56.08;40.65;;;;;;;13.81;74.58;99823.53;5035737;28;20045;-63
2022/04/22 10:53:09;;;;;;;125.15;89.75;;;;;;;13.85;74.84;99823.16;5036598;28;20557;-63
2022/04/22 10:55:37;;;;;;;44.17;32.00;;;;;;;13.83;74.54;99830.34;5041359;28;20382;-63
2022/04/22 10:58:25;;;;;;;143.63;100.53;;;;;;;13.87;74.57;99834.38;5043441;28;20079;-63
2022/04/22 11:00:59;;;;;;;44.70;30.98;;;;;;;13.89;74.36;99831.66;5031674;28;20163;-63
2022/04/22 11:03:31;;;;;;;33.10;24.70;;;;;;;13.90;74.69;99830.66;5034142;28;20053;-62
2022/04/22 11:05:59;;;;;;;29.50;23.88;;;;;;;13.92;74.53;99836.66;5044347;28;20456;-63
2022/04/22 11:08:32;;;;;;;26.90;21.73;;;;;;;14.00;74.62;99838.63;5034491;28;20099;-61
2022/04/22 11:11:05;;;;;;;32.50;22.83;;;;;;;14.45;73.27;99845.31;5036435;28;20060;-63
2022/04/22 11:13:38;;;;;;;90.05;61.08;;;;;;;14.13;73.74;99844.53;5032778;28;20167;-65
2022/04/22 11:16:07;;;;;;;46.45;29.33;;;;;;;14.11;73.83;99853.56;5036352;28;20099;-62
2022/04/22 11:18:35;;;;;;;37.97;25.70;;;;;;;14.03;74.42;99859.47;5034925;28;20053;-62
2022/04/22 11:21:12;;;;;;;63.97;47.45;;;;;;;13.99;74.20;99856.28;5044933;28;20139;-61
2022/04/22 11:23:41;;;;;;;40.97;31.25;;;;;;;13.92;74.46;99855.09;5043984;28;20049;-61
2022/04/22 11:26:10;;;;;;;68.43;39.35;;;;;;;14.43;73.85;99857.84;5048870;28;20082;-61
2022/04/22 11:28:39;;;;;;;63.05;41.05;;;;;;;14.78;73.65;99859.19;5040521;28;20494;-61
2022/04/22 11:31:10;;;;;;;61.03;38.22;;;;;;;14.98;74.02;99862.69;5045909;28;20091;-62
2022/04/22 11:33:40;;;;;;;51.03;34.30;;;;;;;15.17;74.58;99867.16;5043037;28;20053;-63
2022/04/22 11:36:07;;;;;;;33.97;22.10;;;;;;;15.07;74.25;99869.81;5044043;28;20076;-62
2022/04/22 11:38:34;;;;;;;47.33;26.02;;;;;;;14.91;75.28;99867.72;5043291;28;20152;-63
2022/04/22 11:41:01;;;;;;;391.48;239.38;;;;;;;14.74;74.66;99871.84;5038902;28;20091;-63
2022/04/22 11:43:28;;;;;;;230.30;159.25;;;;;;;14.61;75.08;99877.31;5047441;28;20111;-63
2022/04/22 11:45:55;;;;;;;46.95;37.75;;;;;;;14.44;75.25;99881.44;5041276;28;20045;-62
2022/04/22 11:48:24;;;;;;;44.17;26.27;;;;;;;14.51;75.53;99877.31;5049869;28;20053;-63
2022/04/22 11:50:53;;;;;;;19.02;16.02;;;;;;;14.59;74.59;99881.06;5041520;28;20490;-63
2022/04/22 11:53:26;;;;;;;21.73;16.63;;;;;;;14.41;75.00;99884.38;5045865;28;20494;-62
2022/04/22 11:55:52;;;;;;;21.08;17.33;;;;;;;14.24;75.58;99880.53;5042645;28;20477;-62
2022/04/22 11:58:21;;;;;;;20.25;16.58;;;;;;;14.28;75.45;99881.09;5044626;28;20124;-63
2022/04/22 12:06:25;;;;;;;33.63;28.83;;;;;;;14.45;74.50;99879.63;5041778;28;20115;-62
2022/04/22 12:08:53;;;;;;;30.13;25.45;;;;;;;14.50;74.49;99890.63;5041772;28;20099;-62
2022/04/22 12:11:20;;;;;;;18.92;16.88;;;;;;;14.58;74.08;99879.44;5049311;28;20053;-62
2022/04/22 12:13:48;;;;;;;26.58;20.90;;;;;;;14.61;74.08;99885.25;5045772;28;20138;-63
2022/04/22 12:16:22;;;;;;;22.15;16.65;;;;;;;14.64;74.01;99887.66;5047621;28;20095;-63
2022/04/22 12:18:56;;;;;;;22.15;18.08;;;;;;;14.83;73.50;99892.16;5044598;28;20080;-63
2022/04/22 12:21:24;;;;;;;15.55;12.65;;;;;;;15.01;73.08;99892.34;5039451;28;20093;-62
2022/04/22 12:23:52;;;;;;;15.10;12.23;;;;;;;15.15;72.61;99890.28;5037211;28;20494;-63